createdAt,value
2022-11-08T00:00:12.483Z,11.60
2022-11-08T00:02:39.390Z,14.33
2022-11-08T00:05:25.475Z,13.30
2022-11-08T00:08:10.780Z,13.03
2022-11-08T00:10:56.453Z,12.33
2022-11-08T00:13:41.902Z,13.47
2022-11-08T00:16:08.592Z,13.10
2022-11-08T00:18:35.407Z,13.90
2022-11-08T00:21:03.224Z,12.33
2022-11-08T00:23:30.123Z,14.30
2022-11-08T00:25:56.866Z,15.03
2022-11-08T00:28:23.598Z,13.57
2022-11-08T00:30:50.331Z,14.17
2022-11-08T00:33:17.124Z,13.40
2022-11-08T00:35:43.775Z,12.57
2022-11-08T00:38:10.591Z,14.77
2022-11-08T00:40:37.501Z,13.00
2022-11-08T00:43:04.186Z,12.77
2022-11-08T00:45:30.887Z,13.60
2022-11-08T00:47:59.882Z,13.20
2022-11-08T00:50:31.679Z,12.30
2022-11-08T00:52:59.923Z,12.70
2022-11-08T00:55:34.388Z,13.63
2022-11-08T00:58:05.595Z,14.53
2022-11-08T01:00:46.164Z,14.50
2022-11-08T01:03:32.239Z,13.10
2022-11-08T01:06:03.996Z,14.33
2022-11-08T01:08:36.906Z,12.60
2022-11-08T01:11:06.654Z,12.40
2022-11-08T01:13:36.773Z,12.73
2022-11-08T01:16:16.802Z,12.90
2022-11-08T01:18:49.744Z,13.60
2022-11-08T01:21:18.667Z,13.27
2022-11-08T01:23:53.274Z,11.47
2022-11-08T01:26:25.216Z,11.90
2022-11-08T01:28:52.091Z,10.40
2022-11-08T01:31:24.911Z,12.20
2022-11-08T01:33:52.193Z,10.07
2022-11-08T01:36:22.434Z,12.20
2022-11-08T01:38:49.602Z,10.13
2022-11-08T01:41:17.676Z,9.67
2022-11-08T01:43:55.792Z,11.80
2022-11-08T01:46:28.155Z,10.53
2022-11-08T01:49:00.071Z,9.83
2022-11-08T01:51:54.243Z,10.00
2022-11-08T01:54:29.281Z,11.40
2022-11-08T01:56:57.955Z,10.50
2022-11-08T01:59:24.864Z,10.80
2022-11-08T02:01:52.308Z,10.53
2022-11-08T02:04:19.450Z,10.63
2022-11-08T02:06:46.119Z,10.83
2022-11-08T02:09:15.179Z,10.00
2022-11-08T02:11:42.852Z,10.77
2022-11-08T02:14:10.265Z,10.93
2022-11-08T02:16:36.997Z,11.27
2022-11-08T02:19:07.394Z,10.90
2022-11-08T02:21:34.072Z,10.60
2022-11-08T02:24:08.502Z,10.90
2022-11-08T02:26:36.739Z,10.60
2022-11-08T02:29:22.854Z,13.10
2022-11-08T02:31:49.731Z,11.60
2022-11-08T02:34:16.927Z,11.50
2022-11-08T02:36:46.181Z,11.63
2022-11-08T02:39:12.861Z,10.90
2022-11-08T02:41:39.527Z,10.87
2022-11-08T02:44:06.317Z,11.57
2022-11-08T02:46:33.040Z,12.70
2022-11-08T02:48:59.687Z,11.97
2022-11-08T02:51:26.398Z,11.10
2022-11-08T02:53:53.120Z,10.43
2022-11-08T02:56:19.900Z,10.80
2022-11-08T02:58:46.558Z,11.47
2022-11-08T03:01:13.223Z,9.93
2022-11-08T03:03:39.964Z,10.73
2022-11-08T03:06:06.667Z,9.40
2022-11-08T03:08:33.367Z,10.30
2022-11-08T03:11:00.621Z,10.47
2022-11-08T03:13:27.323Z,10.57
2022-11-08T03:15:54.001Z,9.97
2022-11-08T03:18:20.962Z,10.60
2022-11-08T03:20:47.750Z,11.50
2022-11-08T03:23:14.468Z,10.37
2022-11-08T03:25:41.129Z,12.00
2022-11-08T03:28:08.921Z,11.43
2022-11-08T03:30:36.350Z,10.00
2022-11-08T03:33:03.498Z,10.37
2022-11-08T03:35:30.170Z,10.53
2022-11-08T03:37:57.627Z,9.87
2022-11-08T03:40:25.433Z,10.47
2022-11-08T03:42:52.402Z,9.70
2022-11-08T03:45:19.141Z,11.20
2022-11-08T03:47:47.065Z,10.13
2022-11-08T03:50:15.963Z,9.97
2022-11-08T03:52:50.448Z,10.77
2022-11-08T03:55:19.162Z,10.70
2022-11-08T03:57:47.649Z,10.83
2022-11-08T04:00:16.688Z,11.40
2022-11-08T04:02:43.882Z,11.50
2022-11-08T04:05:12.136Z,10.60
2022-11-08T04:07:39.440Z,10.40
2022-11-08T04:10:08.190Z,10.43
2022-11-08T04:12:56.810Z,10.97
2022-11-08T04:15:24.049Z,10.83
2022-11-08T04:18:10.676Z,11.30
2022-11-08T04:21:00.146Z,10.87
2022-11-08T04:23:27.289Z,9.80
2022-11-08T04:25:59.430Z,9.70
2022-11-08T04:28:31.488Z,11.53
2022-11-08T04:31:00.915Z,11.27
2022-11-08T04:33:27.727Z,11.30
2022-11-08T04:35:54.518Z,13.50
2022-11-08T04:38:22.066Z,11.77
2022-11-08T04:40:48.979Z,11.30
2022-11-08T04:43:15.894Z,11.43
2022-11-08T04:45:42.648Z,12.20
2022-11-08T04:48:09.574Z,10.70
2022-11-08T04:50:36.590Z,12.07
2022-11-08T04:53:03.776Z,12.00
2022-11-08T04:55:30.473Z,10.07
2022-11-08T04:57:59.031Z,12.33
2022-11-08T05:00:26.323Z,9.93
2022-11-08T05:02:53.199Z,11.90
2022-11-08T05:05:20.021Z,12.33
2022-11-08T05:07:46.716Z,11.80
2022-11-08T05:10:13.514Z,12.40
2022-11-08T05:12:40.230Z,11.10
2022-11-08T05:15:07.721Z,10.80
2022-11-08T05:17:34.435Z,10.30
2022-11-08T05:20:19.401Z,10.50
2022-11-08T05:23:04.888Z,10.50
2022-11-08T05:25:31.653Z,10.57
2022-11-08T05:27:58.359Z,11.67
2022-11-08T05:30:25.002Z,11.27
2022-11-08T05:32:52.781Z,11.03
2022-11-08T05:35:21.702Z,11.20
2022-11-08T05:37:48.751Z,9.40
2022-11-08T05:40:15.717Z,10.77
2022-11-08T05:42:42.503Z,11.27
2022-11-08T05:45:09.780Z,10.63
2022-11-08T05:47:37.317Z,10.87
2022-11-08T05:50:04.479Z,11.63
2022-11-08T05:52:31.240Z,11.27
2022-11-08T05:54:57.888Z,10.27
2022-11-08T05:57:24.541Z,10.90
2022-11-08T05:59:51.351Z,11.77
2022-11-08T06:02:18.622Z,10.47
2022-11-08T06:04:45.463Z,10.00
2022-11-08T06:07:12.402Z,13.17
2022-11-08T06:09:40.085Z,13.17
2022-11-08T06:12:07.071Z,12.77
2022-11-08T06:14:33.919Z,12.07
2022-11-08T06:17:00.635Z,13.30
2022-11-08T06:19:27.329Z,10.93
2022-11-08T06:21:54.060Z,14.37
2022-11-08T06:24:20.713Z,10.40
2022-11-08T06:26:47.350Z,13.03
2022-11-08T06:29:14.483Z,11.60
2022-11-08T06:31:43.139Z,13.50
2022-11-08T06:34:10.211Z,10.97
2022-11-08T06:36:37.058Z,14.50
2022-11-08T06:39:03.819Z,11.37
2022-11-08T06:41:30.519Z,10.37
2022-11-08T06:43:57.212Z,13.03
2022-11-08T06:46:23.960Z,14.20
2022-11-08T06:48:50.941Z,11.50
2022-11-08T06:51:18.062Z,13.30
2022-11-08T06:53:45.178Z,13.70
2022-11-08T06:56:12.177Z,14.90
2022-11-08T06:58:39.346Z,12.77
2022-11-08T07:01:07.695Z,13.20
2022-11-08T07:03:35.166Z,12.83
2022-11-08T07:06:03.860Z,16.20
2022-11-08T07:08:31.567Z,11.47
2022-11-08T07:10:58.408Z,15.23
2022-11-08T07:13:25.171Z,14.03
2022-11-08T07:15:51.825Z,10.63
2022-11-08T07:18:20.051Z,11.80
2022-11-08T07:20:47.286Z,11.93
2022-11-08T07:23:14.473Z,29.37
2022-11-08T07:25:41.213Z,15.50
2022-11-08T07:28:13.139Z,14.17
2022-11-08T07:30:39.819Z,14.90
2022-11-08T07:33:06.500Z,13.00
2022-11-08T07:35:33.586Z,13.83
2022-11-08T07:38:00.338Z,13.70
2022-11-08T07:40:27.164Z,11.30
2022-11-08T07:43:11.241Z,14.13
2022-11-08T07:45:43.859Z,11.53
2022-11-08T07:48:13.865Z,13.97
2022-11-08T07:50:42.141Z,10.60
2022-11-08T07:53:09.558Z,11.60
2022-11-08T07:55:37.671Z,10.60
2022-11-08T07:58:04.895Z,17.13
2022-11-08T08:00:33.660Z,10.83
2022-11-08T08:03:01.985Z,10.87
2022-11-08T08:05:30.196Z,11.20
2022-11-08T08:07:58.145Z,10.90
2022-11-08T08:10:25.651Z,76.87
2022-11-08T08:12:52.383Z,56.80
2022-11-08T08:15:19.256Z,34.83
2022-11-08T08:17:46.406Z,21.10
2022-11-08T08:20:13.953Z,15.23
2022-11-08T08:22:48.288Z,10.70
2022-11-08T08:25:15.891Z,13.90
2022-11-08T08:27:54.627Z,9.13
2022-11-08T08:30:22.694Z,9.87
2022-11-08T08:33:08.326Z,8.27
2022-11-08T08:35:38.081Z,7.90
2022-11-08T08:38:06.146Z,8.23
2022-11-08T08:40:34.006Z,8.17
2022-11-08T08:43:03.108Z,8.60
2022-11-08T08:45:30.058Z,7.80
2022-11-08T08:47:58.065Z,7.60
2022-11-08T08:50:27.424Z,7.60
2022-11-08T08:53:05.308Z,7.67
2022-11-08T08:55:35.160Z,7.63
2022-11-08T08:58:02.254Z,6.90
2022-11-08T09:03:16.121Z,6.97
2022-11-08T09:05:44.251Z,11.73
2022-11-08T09:08:11.828Z,8.10
2022-11-08T09:10:38.895Z,8.37
2022-11-08T09:13:05.745Z,7.90
2022-11-08T09:15:32.928Z,8.70
2022-11-08T09:18:00.091Z,7.10
2022-11-08T09:20:27.208Z,7.40
2022-11-08T09:22:53.923Z,7.93
2022-11-08T09:25:20.727Z,9.97
2022-11-08T09:27:47.421Z,11.23
2022-11-08T09:30:14.217Z,5.97
2022-11-08T09:33:00.471Z,7.93
2022-11-08T09:35:28.300Z,7.10
2022-11-08T09:37:55.708Z,6.40
2022-11-08T09:40:33.293Z,6.67
2022-11-08T09:43:24.841Z,6.90
2022-11-08T09:45:53.665Z,6.63
2022-11-08T09:48:29.868Z,5.50
2022-11-08T09:50:59.036Z,5.73
2022-11-08T09:54:01.035Z,5.50
2022-11-08T09:56:32.521Z,5.40
2022-11-08T09:59:13.201Z,4.80
2022-11-08T10:01:40.231Z,5.50
2022-11-08T10:04:16.820Z,5.40
2022-11-08T10:07:02.420Z,5.27
2022-11-08T10:09:45.042Z,5.10
2022-11-08T10:12:25.681Z,4.67
2022-11-08T10:15:17.428Z,5.90
2022-11-08T10:18:12.401Z,6.30
2022-11-08T10:21:11.628Z,4.20
2022-11-08T10:23:53.166Z,5.60
2022-11-08T10:26:27.014Z,7.30
2022-11-08T10:29:00.166Z,6.70
2022-11-08T10:31:30.556Z,5.20
2022-11-08T10:34:00.304Z,4.83
2022-11-08T10:36:43.624Z,6.60
2022-11-08T10:39:20.117Z,6.50
2022-11-08T10:42:16.943Z,5.03
2022-11-08T10:44:44.489Z,4.13
2022-11-08T10:47:30.393Z,4.10
2022-11-08T10:50:01.056Z,4.77
2022-11-08T10:52:42.505Z,4.87
2022-11-08T10:55:22.795Z,4.10
2022-11-08T10:57:49.633Z,5.73
2022-11-08T11:00:22.720Z,7.40
2022-11-08T11:02:55.553Z,3.93
2022-11-08T11:05:35.557Z,3.80
2022-11-08T11:08:08.469Z,5.20
2022-11-08T11:10:39.116Z,4.60
2022-11-08T11:16:00.702Z,4.27
2022-11-08T11:18:46.710Z,4.13
2022-11-08T11:21:17.292Z,3.53
2022-11-08T11:23:45.701Z,5.20
2022-11-08T11:26:30.302Z,4.53
2022-11-08T11:29:06.272Z,5.63
2022-11-08T11:31:40.865Z,4.50
2022-11-08T11:34:27.867Z,4.73
2022-11-08T11:37:09.533Z,6.00
2022-11-08T11:39:39.666Z,4.87
2022-11-08T11:42:49.650Z,5.77
2022-11-08T11:45:35.323Z,7.23
2022-11-08T11:48:11.442Z,5.73
2022-11-08T11:50:40.147Z,5.87
2022-11-08T11:53:17.359Z,5.83
2022-11-08T11:56:09.313Z,9.23
2022-11-08T11:58:56.411Z,5.17
2022-11-08T12:01:58.520Z,10.03
2022-11-08T12:04:46.533Z,4.90
2022-11-08T12:07:26.032Z,5.50
2022-11-08T12:10:14.130Z,5.67
2022-11-08T12:12:58.952Z,6.37
2022-11-08T12:15:39.927Z,4.20
2022-11-08T12:18:42.583Z,7.30
2022-11-08T12:21:28.916Z,5.00
2022-11-08T12:23:58.407Z,4.73
2022-11-08T12:26:54.525Z,4.80
2022-11-08T12:29:25.765Z,7.27
2022-11-08T12:32:10.304Z,5.73
2022-11-08T12:34:57.990Z,6.07
2022-11-08T12:37:47.201Z,4.80
2022-11-08T12:40:33.832Z,6.23
2022-11-08T12:43:21.497Z,4.67
2022-11-08T12:46:10.752Z,6.43
2022-11-08T12:48:49.400Z,4.27
2022-11-08T12:51:52.563Z,5.67
2022-11-08T12:54:39.555Z,3.83
2022-11-08T12:57:11.840Z,4.60
2022-11-08T12:59:48.971Z,8.07
2022-11-08T13:02:30.261Z,5.83
2022-11-08T13:05:13.101Z,6.17
2022-11-08T13:07:52.220Z,5.27
2022-11-08T13:10:47.639Z,6.00
2022-11-08T13:13:36.047Z,4.80
2022-11-08T13:16:12.926Z,6.83
2022-11-08T13:18:48.519Z,6.70
2022-11-08T13:21:38.035Z,5.53
2022-11-08T13:24:14.213Z,6.23
2022-11-08T13:26:54.746Z,5.57
2022-11-08T13:29:27.400Z,8.30
2022-11-08T13:31:57.308Z,6.33
2022-11-08T13:34:39.256Z,4.30
2022-11-08T13:37:21.054Z,4.27
2022-11-08T13:40:02.451Z,5.77
2022-11-08T13:42:38.104Z,4.37
2022-11-08T13:45:17.212Z,11.83
2022-11-08T13:47:43.886Z,4.60
2022-11-08T13:50:29.083Z,4.50
2022-11-08T13:53:11.270Z,6.27
2022-11-08T13:55:43.798Z,4.63
2022-11-08T13:58:39.195Z,4.63
2022-11-08T14:01:38.397Z,5.73
2022-11-08T14:04:24.467Z,4.10
2022-11-08T14:07:09.984Z,4.80
2022-11-08T14:09:42.818Z,5.10
2022-11-08T14:12:38.656Z,5.30
2022-11-08T14:15:24.783Z,3.80
2022-11-08T14:18:07.123Z,5.57
2022-11-08T14:20:38.615Z,5.73
2022-11-08T14:23:28.453Z,6.60
2022-11-08T14:26:05.506Z,6.27
2022-11-08T14:28:37.862Z,6.47
2022-11-08T14:31:27.453Z,6.13
2022-11-08T14:33:55.137Z,11.83
2022-11-08T14:36:23.202Z,5.03
2022-11-08T14:39:02.966Z,6.40
2022-11-08T14:41:31.952Z,8.90
2022-11-08T14:44:00.446Z,5.43
2022-11-08T14:46:36.251Z,11.27
2022-11-08T14:49:23.617Z,6.13
2022-11-08T14:52:17.683Z,6.03
2022-11-08T14:54:47.355Z,4.90
2022-11-08T14:57:36.708Z,6.87
2022-11-08T15:00:26.706Z,8.30
2022-11-08T15:03:03.249Z,5.43
2022-11-08T15:05:41.112Z,11.13
2022-11-08T15:08:42.226Z,7.03
2022-11-08T15:11:12.293Z,7.70
2022-11-08T15:13:48.446Z,8.40
2022-11-08T15:16:15.434Z,5.10
2022-11-08T15:18:44.348Z,7.77
2022-11-08T15:21:28.219Z,5.60
2022-11-08T15:24:10.677Z,4.17
2022-11-08T15:26:37.806Z,4.57
2022-11-08T15:29:18.929Z,10.10
2022-11-08T15:32:01.464Z,4.77
2022-11-08T15:34:40.690Z,4.13
2022-11-08T15:37:29.270Z,6.40
2022-11-08T15:39:56.638Z,5.40
2022-11-08T15:42:23.502Z,5.23
2022-11-08T15:45:00.830Z,7.00
2022-11-08T15:47:42.595Z,6.40
2022-11-08T15:50:28.958Z,6.00
2022-11-08T15:52:58.491Z,5.53
2022-11-08T15:55:32.574Z,8.00
2022-11-08T15:57:59.512Z,10.20
2022-11-08T16:00:29.788Z,6.70
2022-11-08T16:02:56.699Z,17.50
2022-11-08T16:05:33.507Z,9.17
2022-11-08T16:08:00.610Z,9.37
2022-11-08T16:10:44.456Z,8.60
2022-11-08T16:13:24.715Z,10.43
2022-11-08T16:15:51.405Z,10.90
2022-11-08T16:18:20.151Z,13.27
2022-11-08T16:20:47.329Z,8.63
2022-11-08T16:23:14.667Z,10.47
2022-11-08T16:25:45.550Z,10.27
2022-11-08T16:28:29.799Z,8.67
2022-11-08T16:30:57.193Z,12.03
2022-11-08T16:33:26.527Z,7.27
2022-11-08T16:35:59.177Z,11.40
2022-11-08T16:38:29.770Z,8.37
2022-11-08T16:40:56.752Z,7.67
2022-11-08T16:43:23.556Z,8.50
2022-11-08T16:46:04.841Z,8.00
2022-11-08T16:48:33.701Z,10.20
2022-11-08T16:51:02.612Z,12.47
2022-11-08T16:53:30.206Z,10.20
2022-11-08T16:55:57.874Z,7.47
2022-11-08T16:58:25.516Z,7.93
2022-11-08T17:00:52.609Z,10.50
2022-11-08T17:03:22.107Z,7.90
2022-11-08T17:05:49.181Z,10.10
2022-11-08T17:08:16.951Z,9.63
2022-11-08T17:10:44.340Z,9.77
2022-11-08T17:13:15.574Z,10.40
2022-11-08T17:15:42.747Z,10.00
2022-11-08T17:18:12.097Z,10.40
2022-11-08T17:20:39.435Z,8.23
2022-11-08T17:23:06.891Z,8.30
2022-11-08T17:25:36.231Z,9.80
2022-11-08T17:28:03.318Z,8.63
2022-11-08T17:30:30.059Z,7.60
2022-11-08T17:32:56.800Z,10.17
2022-11-08T17:35:23.487Z,7.50
2022-11-08T17:37:50.245Z,8.57
2022-11-08T17:40:17.063Z,12.10
2022-11-08T17:42:45.324Z,10.23
2022-11-08T17:45:12.506Z,9.23
2022-11-08T17:47:39.244Z,9.47
2022-11-08T17:50:07.014Z,8.97
2022-11-08T17:52:33.773Z,8.17
2022-11-08T17:55:00.520Z,8.00
2022-11-08T17:57:27.276Z,8.10
2022-11-08T17:59:54.092Z,8.23
2022-11-08T18:02:22.100Z,8.73
2022-11-08T18:04:49.032Z,8.80
2022-11-08T18:07:15.926Z,10.23
2022-11-08T18:09:42.769Z,8.00
2022-11-08T18:12:09.736Z,8.73
2022-11-08T18:14:36.637Z,9.83
2022-11-08T18:17:05.166Z,8.63
2022-11-08T18:19:32.221Z,11.93
2022-11-08T18:22:00.341Z,7.00
2022-11-08T18:24:27.276Z,8.33
2022-11-08T18:26:54.147Z,10.20
2022-11-08T18:29:21.071Z,9.20
2022-11-08T18:31:47.905Z,7.40
2022-11-08T18:34:14.598Z,8.40
2022-11-08T18:36:41.370Z,9.03
2022-11-08T18:39:08.286Z,8.20
2022-11-08T18:41:35.161Z,8.37
2022-11-08T18:44:13.600Z,7.70
2022-11-08T18:46:43.515Z,8.20
2022-11-08T18:49:10.814Z,7.97
2022-11-08T18:51:37.611Z,7.13
2022-11-08T18:54:04.450Z,7.20
2022-11-08T18:56:31.386Z,7.63
2022-11-08T18:58:58.327Z,6.97
2022-11-08T19:01:25.099Z,8.93
2022-11-08T19:03:52.143Z,7.87
2022-11-08T19:06:19.753Z,8.83
2022-11-08T19:08:46.726Z,8.10
2022-11-08T19:11:14.664Z,8.83
2022-11-08T19:13:41.920Z,8.30
2022-11-08T19:16:16.022Z,12.47
2022-11-08T19:18:44.564Z,9.53
2022-11-08T19:21:22.972Z,8.50
2022-11-08T19:23:51.291Z,9.10
2022-11-08T19:26:23.383Z,10.50
2022-11-08T19:28:53.916Z,9.00
2022-11-08T19:31:22.852Z,7.40
2022-11-08T19:33:52.432Z,7.80
2022-11-08T19:36:24.744Z,8.73
2022-11-08T19:38:53.555Z,9.13
2022-11-08T19:41:22.745Z,7.37
2022-11-08T19:43:50.492Z,7.63
2022-11-08T19:46:20.447Z,8.43
2022-11-08T19:48:49.192Z,7.33
2022-11-08T19:51:19.125Z,6.57
2022-11-08T19:53:47.457Z,6.47
2022-11-08T19:56:16.860Z,7.23
2022-11-08T19:58:44.119Z,8.90
2022-11-08T20:01:23.370Z,7.90
2022-11-08T20:03:51.285Z,8.77
2022-11-08T20:06:20.649Z,6.80
2022-11-08T20:08:52.249Z,6.63
2022-11-08T20:11:21.859Z,7.00
2022-11-08T20:13:49.031Z,8.13
2022-11-08T20:16:29.265Z,8.60
2022-11-08T20:19:02.021Z,7.73
2022-11-08T20:21:29.765Z,7.97
2022-11-08T20:23:56.810Z,7.63
2022-11-08T20:26:25.636Z,9.57
2022-11-08T20:28:57.392Z,9.03
2022-11-08T20:31:25.730Z,8.30
2022-11-08T20:33:53.901Z,11.40
2022-11-08T20:36:22.951Z,8.97
2022-11-08T20:38:51.039Z,9.10
2022-11-08T20:41:18.603Z,10.07
2022-11-08T20:43:47.272Z,8.87
2022-11-08T20:46:19.741Z,9.10
2022-11-08T20:48:51.771Z,8.07
2022-11-08T20:51:20.878Z,8.33
2022-11-08T20:53:48.666Z,7.17
2022-11-08T20:56:18.954Z,6.77
2022-11-08T20:58:47.009Z,6.50
2022-11-08T21:01:16.924Z,6.07
2022-11-08T21:03:45.732Z,7.70
2022-11-08T21:06:15.538Z,7.00
2022-11-08T21:09:00.912Z,7.57
2022-11-08T21:11:30.465Z,6.97
2022-11-08T21:13:57.596Z,5.73
2022-11-08T21:16:30.592Z,6.20
2022-11-08T21:19:02.768Z,7.03
2022-11-08T21:21:31.196Z,5.80
2022-11-08T21:23:58.065Z,6.83
2022-11-08T21:26:25.547Z,5.77
2022-11-08T21:28:52.437Z,6.50
2022-11-08T21:31:19.487Z,6.67
2022-11-08T21:33:46.374Z,5.90
2022-11-08T21:36:13.582Z,6.17
2022-11-08T21:38:40.818Z,6.00
2022-11-08T21:41:09.432Z,5.50
2022-11-08T21:43:45.181Z,5.90
2022-11-08T21:46:24.391Z,6.93
2022-11-08T21:48:59.287Z,6.43
2022-11-08T21:51:29.371Z,6.40
2022-11-08T21:53:57.606Z,6.03
2022-11-08T21:56:27.893Z,6.90
2022-11-08T21:58:54.864Z,7.53
2022-11-08T22:01:25.612Z,7.27
2022-11-08T22:03:54.263Z,6.73
2022-11-08T22:06:21.607Z,7.87
2022-11-08T22:08:48.781Z,8.70
2022-11-08T22:11:15.531Z,7.80
2022-11-08T22:13:42.286Z,7.33
2022-11-08T22:16:09.136Z,7.27
2022-11-08T22:18:58.752Z,7.67
2022-11-08T22:21:38.672Z,8.23
2022-11-08T22:24:14.441Z,8.00
2022-11-08T22:26:41.741Z,7.27
2022-11-08T22:29:08.850Z,9.60
2022-11-08T22:31:35.935Z,7.17
2022-11-08T22:34:03.367Z,7.70
2022-11-08T22:36:30.156Z,7.93
2022-11-08T22:38:57.116Z,7.20
2022-11-08T22:41:24.220Z,8.50
2022-11-08T22:43:51.340Z,8.60
2022-11-08T22:46:18.191Z,7.17
2022-11-08T22:48:45.663Z,8.60
2022-11-08T22:51:13.155Z,7.10
2022-11-08T22:53:40.503Z,7.60
2022-11-08T22:56:11.205Z,6.97
2022-11-08T22:58:38.946Z,6.10
2022-11-08T23:01:06.833Z,6.47
2022-11-08T23:03:33.787Z,6.30
2022-11-08T23:06:00.510Z,6.50
2022-11-08T23:08:27.871Z,6.20
2022-11-08T23:11:13.462Z,7.90
2022-11-08T23:13:59.510Z,6.10
2022-11-08T23:16:34.169Z,7.10
2022-11-08T23:19:22.181Z,7.37
2022-11-08T23:22:07.621Z,7.83
2022-11-08T23:24:34.428Z,7.73
2022-11-08T23:27:20.801Z,8.73
2022-11-08T23:30:06.982Z,7.30
2022-11-08T23:32:34.640Z,7.70
2022-11-08T23:35:01.527Z,8.93
2022-11-08T23:37:29.568Z,8.90
2022-11-08T23:40:15.019Z,9.57
2022-11-08T23:43:00.475Z,8.23
2022-11-08T23:45:27.460Z,8.50
2022-11-08T23:47:54.758Z,7.97
2022-11-08T23:50:21.492Z,7.90
2022-11-08T23:52:48.410Z,8.23
2022-11-08T23:55:15.173Z,8.17
2022-11-08T23:57:41.879Z,7.37
